Time;durP1;ratioP1;P1;durP2;ratioP2;P2;SDS_P1;SDS_P2;PMS_P1;PMS_P2;Temp;Humidity;BMP_temperature;BMP_pressure;BME280_temperature;BME280_humidity;BME280_pressure;Samples;Min_cycle;Max_cycle;Signal;HPM_P1;HPM_P2
2021/10/17 00:00:18;;;;;;;21.13;19.13;;;5.20;99.90;;;;;;5002078;28;20209;-76
2021/10/17 00:02:47;;;;;;;23.57;21.20;;;5.30;99.90;;;;;;5002531;28;20624;-76
2021/10/17 00:05:15;;;;;;;26.07;23.57;;;5.40;99.90;;;;;;5002068;28;20193;-76
2021/10/17 00:07:43;;;;;;;22.77;20.33;;;5.50;99.90;;;;;;5003923;28;20638;-77
2021/10/17 00:10:12;;;;;;;23.63;21.43;;;5.50;99.90;;;;;;5014546;28;20193;-76
2021/10/17 00:12:40;;;;;;;22.53;20.27;;;5.60;99.90;;;;;;5014340;28;20272;-77
2021/10/17 00:15:10;;;;;;;20.47;15.97;;;5.60;99.90;;;;;;5006454;28;20642;-77
2021/10/17 00:17:37;;;;;;;19.03;16.10;;;5.70;99.90;;;;;;5003432;28;20756;-76
2021/10/17 00:20:08;;;;;;;18.07;15.13;;;5.80;99.90;;;;;;5001015;28;20212;-77
2021/10/17 00:22:35;;;;;;;17.13;15.23;;;5.80;99.90;;;;;;5004961;28;20197;-76
2021/10/17 00:25:02;;;;;;;17.70;15.77;;;5.80;99.90;;;;;;4999943;28;20208;-76
2021/10/17 00:27:28;;;;;;;27.40;24.87;;;5.90;99.90;;;;;;5020784;28;20267;-76
2021/10/17 00:29:55;;;;;;;25.13;22.77;;;6.00;99.90;;;;;;4998185;28;20224;-76
2021/10/17 00:32:22;;;;;;;24.43;22.33;;;6.00;99.90;;;;;;5004659;28;20201;-77
2021/10/17 00:34:49;;;;;;;27.27;24.57;;;6.00;99.90;;;;;;5017989;28;20609;-77
2021/10/17 00:37:18;;;;;;;25.47;23.23;;;6.10;99.90;;;;;;5002439;28;20220;-76
2021/10/17 00:39:45;;;;;;;24.30;22.20;;;6.20;99.90;;;;;;5018170;28;20201;-76
2021/10/17 00:42:12;;;;;;;23.77;21.63;;;6.40;99.90;;;;;;5000939;28;20211;-77
2021/10/17 00:44:41;;;;;;;25.17;22.90;;;6.40;99.90;;;;;;5003982;28;20189;-77
2021/10/17 00:47:08;;;;;;;24.70;22.50;;;6.40;99.90;;;;;;5000879;28;20217;-76
2021/10/17 00:49:35;;;;;;;25.80;23.33;;;6.60;99.90;;;;;;5004172;28;20200;-76
2021/10/17 00:52:03;;;;;;;25.10;22.80;;;6.60;99.90;;;;;;5001229;28;20272;-77
2021/10/17 00:54:31;;;;;;;22.80;20.73;;;6.60;99.90;;;;;;5003119;28;20282;-76
2021/10/17 00:56:58;;;;;;;24.40;22.10;;;6.70;99.90;;;;;;5001100;28;20229;-77
2021/10/17 00:59:25;;;;;;;22.93;20.83;;;6.70;99.90;;;;;;5001988;28;20673;-76
2021/10/17 01:01:51;;;;;;;23.57;21.57;;;6.70;99.90;;;;;;5002588;28;20635;-76
2021/10/17 01:04:19;;;;;;;24.80;22.67;;;6.70;99.90;;;;;;5000975;28;20205;-77
2021/10/17 01:06:46;;;;;;;22.93;21.03;;;6.70;99.90;;;;;;5010231;28;20225;-77
2021/10/17 01:09:13;;;;;;;23.63;21.53;;;6.80;99.90;;;;;;5007056;28;20640;-77
2021/10/17 01:11:43;;;;;;;23.73;21.60;;;6.80;99.90;;;;;;5020579;28;20242;-77
2021/10/17 01:14:16;;;;;;;23.87;21.67;;;6.90;99.90;;;;;;5007403;28;20230;-76
2021/10/17 01:16:43;;;;;;;26.97;24.50;;;6.80;99.90;;;;;;5007200;28;20272;-76
2021/10/17 01:19:10;;;;;;;25.30;23.20;;;6.90;99.90;;;;;;5012006;28;20671;-77
2021/10/17 01:21:40;;;;;;;24.50;22.30;;;7.00;99.90;;;;;;5002341;28;20205;-76
2021/10/17 01:24:08;;;;;;;24.80;22.47;;;7.00;99.90;;;;;;5006312;28;20199;-77
2021/10/17 01:26:36;;;;;;;23.37;21.17;;;7.10;99.90;;;;;;5005230;28;20205;-76
2021/10/17 01:29:04;;;;;;;24.67;22.37;;;7.00;99.90;;;;;;5003363;28;20206;-77
2021/10/17 01:31:35;;;;;;;22.07;20.07;;;7.00;99.90;;;;;;5005243;28;20194;-77
2021/10/17 01:34:02;;;;;;;24.00;21.90;;;7.10;99.90;;;;;;5008120;28;20223;-77
2021/10/17 01:36:29;;;;;;;23.83;21.73;;;7.10;99.90;;;;;;5008464;28;20195;-77
2021/10/17 01:38:58;;;;;;;24.00;21.83;;;7.10;99.90;;;;;;5004248;28;20320;-76
2021/10/17 01:41:25;;;;;;;24.07;21.97;;;7.10;99.90;;;;;;5003782;28;20199;-76
2021/10/17 01:44:01;;;;;;;22.43;20.43;;;7.20;99.90;;;;;;5003800;28;20239;-77
2021/10/17 01:46:28;;;;;;;23.20;21.20;;;7.20;99.90;;;;;;5003577;28;20763;-77
2021/10/17 01:48:55;;;;;;;25.33;22.93;;;7.20;99.90;;;;;;5008744;28;20194;-76
2021/10/17 01:51:22;;;;;;;23.07;21.03;;;7.20;99.90;;;;;;5000190;28;20238;-76
2021/10/17 01:53:49;;;;;;;23.73;21.60;;;7.30;99.90;;;;;;5008038;28;20574;-76
2021/10/17 01:56:18;;;;;;;23.27;21.17;;;7.30;99.90;;;;;;5007193;28;20222;-77
2021/10/17 01:58:45;;;;;;;21.93;20.03;;;7.30;99.90;;;;;;5019590;28;20218;-76
2021/10/17 02:01:12;;;;;;;22.67;20.63;;;7.30;99.90;;;;;;5019892;28;20642;-76
2021/10/17 02:03:40;;;;;;;22.57;20.53;;;7.20;99.90;;;;;;5003336;28;20204;-77
2021/10/17 02:06:07;;;;;;;23.60;21.33;;;7.30;99.90;;;;;;5005715;28;20209;-79
2021/10/17 02:08:34;;;;;;;23.33;21.13;;;7.30;99.90;;;;;;5007851;28;20633;-78
2021/10/17 02:11:02;;;;;;;23.60;21.50;;;7.30;99.90;;;;;;5000475;28;20199;-79
2021/10/17 02:13:33;;;;;;;23.13;21.13;;;7.30;99.90;;;;;;5008447;28;20221;-79
2021/10/17 02:16:00;;;;;;;21.03;19.17;;;7.30;99.90;;;;;;5005187;28;20204;-79
2021/10/17 02:18:27;;;;;;;23.00;20.87;;;7.30;99.90;;;;;;5019867;28;20226;-78
2021/10/17 02:20:54;;;;;;;23.77;21.57;;;7.30;99.90;;;;;;5003588;28;20209;-79
2021/10/17 02:23:22;;;;;;;24.90;22.70;;;7.30;99.90;;;;;;5003630;28;20342;-79
2021/10/17 02:25:53;;;;;;;23.20;21.20;;;7.30;99.90;;;;;;5007517;28;20203;-77
2021/10/17 02:28:22;;;;;;;24.70;22.30;;;7.30;99.90;;;;;;5007084;28;20773;-76
2021/10/17 02:30:54;;;;;;;24.53;22.23;;;7.30;99.90;;;;;;5018608;28;20673;-76
2021/10/17 02:33:28;;;;;;;24.97;22.80;;;7.40;99.90;;;;;;5022129;28;20301;-76
2021/10/17 02:35:55;;;;;;;26.83;24.33;;;7.40;99.90;;;;;;5002806;28;20207;-76
2021/10/17 02:38:22;;;;;;;24.63;22.53;;;7.40;99.90;;;;;;4997851;28;20216;-76
2021/10/17 02:40:49;;;;;;;24.83;22.67;;;7.40;99.90;;;;;;5009929;28;20702;-76
2021/10/17 02:43:16;;;;;;;25.97;23.77;;;7.40;99.90;;;;;;5013832;28;20285;-76
2021/10/17 02:45:43;;;;;;;23.10;21.13;;;7.40;99.90;;;;;;5007460;28;20213;-77
2021/10/17 02:48:11;;;;;;;24.13;21.93;;;7.40;99.90;;;;;;5005335;28;20218;-76
2021/10/17 02:50:38;;;;;;;18.87;16.77;;;7.30;99.90;;;;;;5008773;28;20201;-76
2021/10/17 02:53:06;;;;;;;16.40;14.70;;;7.30;99.90;;;;;;5000343;28;20285;-77
2021/10/17 02:55:35;;;;;;;15.93;14.33;;;7.30;99.90;;;;;;5008701;28;20207;-76
2021/10/17 02:58:06;;;;;;;18.83;16.40;;;7.30;99.90;;;;;;4995081;28;20710;-76
2021/10/17 03:00:33;;;;;;;14.30;12.30;;;7.30;99.90;;;;;;5025648;28;20293;-76
2021/10/17 03:03:00;;;;;;;15.53;13.73;;;7.30;99.90;;;;;;5007189;28;20213;-76
2021/10/17 03:05:31;;;;;;;16.60;14.03;;;7.30;99.90;;;;;;5004455;28;20604;-77
2021/10/17 03:07:58;;;;;;;18.13;16.43;;;7.30;99.90;;;;;;4998913;28;20233;-75
2021/10/17 03:10:25;;;;;;;17.00;15.20;;;7.30;99.90;;;;;;5011089;28;20195;-76
2021/10/17 03:12:53;;;;;;;19.73;17.73;;;7.50;99.90;;;;;;5006269;28;20293;-77
2021/10/17 03:15:22;;;;;;;18.17;14.97;;;7.50;99.90;;;;;;5018487;28;20247;-76
2021/10/17 03:17:49;;;;;;;16.93;14.50;;;7.50;99.90;;;;;;5011857;28;20222;-76
2021/10/17 03:20:16;;;;;;;16.43;14.60;;;7.60;99.90;;;;;;4998546;28;20202;-77
2021/10/17 03:22:47;;;;;;;15.57;13.20;;;7.60;99.90;;;;;;5000371;28;20205;-75
2021/10/17 03:25:15;;;;;;;18.00;14.43;;;7.60;99.90;;;;;;5005239;28;20199;-76
2021/10/17 03:27:44;;;;;;;16.13;14.43;;;7.50;99.90;;;;;;5005346;28;20295;-75
2021/10/17 03:30:19;;;;;;;21.43;16.30;;;7.50;99.90;;;;;;5008015;28;20209;-75
2021/10/17 03:32:46;;;;;;;17.63;14.00;;;7.60;99.90;;;;;;5006420;28;20667;-79
2021/10/17 03:35:13;;;;;;;17.13;13.93;;;7.70;99.90;;;;;;5008573;28;20221;-76
2021/10/17 03:37:40;;;;;;;15.57;13.97;;;7.60;99.90;;;;;;5007482;28;20223;-76
2021/10/17 03:40:09;;;;;;;16.40;13.83;;;7.60;99.90;;;;;;5008727;28;20268;-76
2021/10/17 03:42:37;;;;;;;14.60;12.90;;;7.70;99.90;;;;;;5009165;28;20209;-76
2021/10/17 03:45:05;;;;;;;17.60;13.87;;;7.60;99.90;;;;;;5008353;28;20199;-76
2021/10/17 03:47:34;;;;;;;15.97;12.87;;;7.60;99.90;;;;;;5010062;28;20230;-76
2021/10/17 03:50:02;;;;;;;16.37;13.27;;;7.60;99.90;;;;;;5009080;28;20306;-76
2021/10/17 03:52:34;;;;;;;15.77;13.87;;;7.60;99.90;;;;;;5009623;28;20677;-76
2021/10/17 03:55:03;;;;;;;16.30;13.27;;;7.60;99.90;;;;;;5027287;28;20695;-76
2021/10/17 03:57:32;;;;;;;15.13;13.03;;;7.50;99.90;;;;;;5013050;28;20382;-76
2021/10/17 03:59:59;;;;;;;15.47;13.30;;;7.50;99.90;;;;;;5007722;28;20196;-76
2021/10/17 04:02:27;;;;;;;19.57;17.57;;;7.40;99.90;;;;;;5004204;28;20195;-76
2021/10/17 04:04:54;;;;;;;19.20;14.20;;;7.40;99.90;;;;;;5013879;28;20234;-76
2021/10/17 04:07:27;;;;;;;15.37;13.33;;;7.30;99.90;;;;;;5025758;28;20232;-76
2021/10/17 04:09:54;;;;;;;16.83;14.20;;;7.20;99.90;;;;;;5005433;28;20206;-75
2021/10/17 04:12:21;;;;;;;23.93;21.93;;;7.20;99.90;;;;;;5027040;28;20592;-76
2021/10/17 04:14:53;;;;;;;25.10;22.97;;;7.10;99.90;;;;;;5018599;28;20211;-76
2021/10/17 04:17:20;;;;;;;23.90;21.67;;;7.00;99.90;;;;;;5010502;28;20725;-75
2021/10/17 04:19:47;;;;;;;22.73;20.83;;;6.90;99.90;;;;;;5009538;28;20203;-75
2021/10/17 04:22:15;;;;;;;24.13;21.93;;;6.80;99.90;;;;;;5008528;28;20206;-76
2021/10/17 04:24:42;;;;;;;23.77;21.73;;;6.80;99.90;;;;;;5018772;28;20196;-77
2021/10/17 04:27:09;;;;;;;17.43;15.63;;;6.70;99.90;;;;;;5001302;28;20660;-76
2021/10/17 04:29:39;;;;;;;20.03;17.90;;;6.60;99.90;;;;;;5018844;28;20214;-76
2021/10/17 04:32:08;;;;;;;18.17;16.20;;;6.50;99.90;;;;;;5002951;28;20198;-76
2021/10/17 04:34:35;;;;;;;24.93;22.63;;;6.50;99.90;;;;;;5001833;28;20299;-75
2021/10/17 04:37:03;;;;;;;23.63;21.53;;;6.40;99.90;;;;;;5005884;28;20243;-76
2021/10/17 04:39:30;;;;;;;25.60;23.20;;;6.30;99.90;;;;;;5006714;28;20196;-76
2021/10/17 04:41:59;;;;;;;24.57;22.37;;;6.20;99.90;;;;;;5006114;28;20213;-76
2021/10/17 04:44:26;;;;;;;25.80;23.07;;;6.20;99.90;;;;;;5004236;28;20185;-76
2021/10/17 04:46:53;;;;;;;25.57;23.20;;;6.20;99.90;;;;;;5006522;28;20601;-76
2021/10/17 04:49:25;;;;;;;24.63;22.43;;;6.10;99.90;;;;;;5001887;28;20202;-77
2021/10/17 04:51:51;;;;;;;22.07;19.87;;;6.10;99.90;;;;;;5008282;28;20660;-75
2021/10/17 04:54:18;;;;;;;21.40;19.20;;;6.10;99.90;;;;;;5002405;28;20252;-76
2021/10/17 04:56:46;;;;;;;21.60;19.50;;;6.10;99.90;;;;;;5027011;28;20272;-76
2021/10/17 04:59:16;;;;;;;21.63;19.33;;;6.10;99.90;;;;;;5012018;28;20206;-76
2021/10/17 05:01:42;;;;;;;16.73;14.70;;;6.00;99.90;;;;;;5011000;28;20200;-79
2021/10/17 05:04:09;;;;;;;16.27;14.57;;;6.00;99.90;;;;;;5009993;28;20196;-77
2021/10/17 05:06:37;;;;;;;18.17;14.90;;;5.90;99.90;;;;;;5024187;28;20201;-77
2021/10/17 05:09:04;;;;;;;19.17;15.03;;;5.90;99.90;;;;;;5011778;28;20221;-75
2021/10/17 05:11:31;;;;;;;18.10;14.70;;;5.90;99.90;;;;;;5007517;28;20203;-76
2021/10/17 05:13:58;;;;;;;17.07;14.00;;;5.90;99.90;;;;;;4999149;28;20201;-77
2021/10/17 05:16:25;;;;;;;21.23;19.03;;;5.90;99.90;;;;;;5001980;28;20196;-77
2021/10/17 05:18:52;;;;;;;17.20;14.70;;;5.80;99.90;;;;;;5000655;28;20579;-77
2021/10/17 05:21:20;;;;;;;22.43;20.23;;;5.70;99.90;;;;;;5008166;28;20217;-76
2021/10/17 05:23:50;;;;;;;17.23;14.70;;;5.70;99.90;;;;;;5020468;28;20206;-77
2021/10/17 05:26:17;;;;;;;17.37;15.47;;;5.60;99.90;;;;;;5020956;28;20203;-77
2021/10/17 05:28:45;;;;;;;22.17;19.97;;;5.60;99.90;;;;;;5022714;28;20225;-77
2021/10/17 05:31:12;;;;;;;23.23;21.13;;;5.50;99.90;;;;;;5020999;28;20205;-77
2021/10/17 05:33:41;;;;;;;22.77;20.60;;;5.60;99.90;;;;;;5002635;28;20742;-77
2021/10/17 05:36:08;;;;;;;23.47;21.20;;;5.50;99.90;;;;;;5000150;28;20459;-76
2021/10/17 05:38:36;;;;;;;21.33;19.33;;;5.50;99.90;;;;;;5002657;28;20224;-77
2021/10/17 05:41:05;;;;;;;19.40;15.73;;;5.40;99.90;;;;;;5000210;28;20592;-76
2021/10/17 05:43:33;;;;;;;25.37;23.07;;;5.40;99.90;;;;;;5000083;28;20205;-77
2021/10/17 05:46:00;;;;;;;17.60;14.47;;;5.30;99.90;;;;;;5000275;28;20216;-76
2021/10/17 05:48:29;;;;;;;25.20;22.90;;;5.40;99.90;;;;;;5000853;28;20776;-76
2021/10/17 05:50:56;;;;;;;20.67;18.67;;;5.30;99.90;;;;;;5011645;28;20228;-76
2021/10/17 05:53:23;;;;;;;24.50;22.10;;;5.30;99.90;;;;;;5019496;28;20200;-76
2021/10/17 05:55:50;;;;;;;20.37;18.27;;;5.20;99.90;;;;;;4995648;28;20216;-76
2021/10/17 05:58:20;;;;;;;17.07;14.57;;;5.20;99.90;;;;;;5019212;28;20232;-77
2021/10/17 06:00:46;;;;;;;19.43;17.33;;;5.20;99.90;;;;;;5003039;28;20216;-76
2021/10/17 06:03:13;;;;;;;21.67;19.47;;;5.20;99.90;;;;;;4996596;28;20302;-76
2021/10/17 06:06:02;;;;;;;22.07;19.80;;;5.20;99.90;;;;;;5000351;28;20293;-76
2021/10/17 06:08:31;;;;;;;17.53;14.57;;;5.20;99.90;;;;;;5019179;28;20232;-77
2021/10/17 06:10:58;;;;;;;17.97;16.27;;;5.20;99.90;;;;;;5002679;28;20622;-76
2021/10/17 06:13:26;;;;;;;20.60;18.50;;;5.30;99.90;;;;;;5015959;28;20202;-76
2021/10/17 06:15:53;;;;;;;19.37;16.93;;;5.30;99.90;;;;;;5012939;28;20219;-76
2021/10/17 06:18:23;;;;;;;18.70;16.73;;;5.40;99.90;;;;;;5026905;28;20228;-76
2021/10/17 06:20:53;;;;;;;19.63;17.53;;;5.40;99.90;;;;;;5007943;28;20193;-77
2021/10/17 06:23:20;;;;;;;22.37;20.37;;;5.50;99.90;;;;;;5022350;28;20220;-77
2021/10/17 06:25:49;;;;;;;19.50;14.87;;;5.50;99.90;;;;;;4998731;28;20206;-76
2021/10/17 06:28:17;;;;;;;18.90;16.90;;;5.60;99.90;;;;;;5009281;28;20229;-77
2021/10/17 06:30:45;;;;;;;14.57;12.93;;;5.70;99.90;;;;;;5013395;28;20677;-77
2021/10/17 06:33:12;;;;;;;14.13;12.07;;;6.00;99.90;;;;;;5004489;28;20643;-79
2021/10/17 06:35:39;;;;;;;22.97;21.07;;;6.10;99.90;;;;;;5019504;28;20656;-77
2021/10/17 06:38:07;;;;;;;20.67;19.00;;;6.40;99.90;;;;;;4996738;28;20217;-77
2021/10/17 06:40:35;;;;;;;14.23;12.27;;;6.60;99.90;;;;;;4998804;28;20206;-77
2021/10/17 06:43:03;;;;;;;13.20;11.40;;;6.70;99.90;;;;;;5009268;28;20226;-78
2021/10/17 06:45:50;;;;;;;20.80;19.00;;;6.80;99.90;;;;;;5014085;28;20208;-77
2021/10/17 06:48:19;;;;;;;19.37;17.80;;;6.80;99.90;;;;;;4999506;28;20304;-76
2021/10/17 06:50:45;;;;;;;18.30;16.80;;;6.80;99.90;;;;;;5019705;28;20212;-75
2021/10/17 06:53:12;;;;;;;18.57;17.07;;;6.80;99.90;;;;;;5003016;28;20259;-76
2021/10/17 06:55:42;;;;;;;18.73;17.33;;;6.70;99.90;;;;;;5009118;28;20297;-76
2021/10/17 06:58:09;;;;;;;18.90;17.33;;;6.70;99.90;;;;;;5009899;28;20292;-76
2021/10/17 07:00:36;;;;;;;19.23;17.63;;;6.80;99.90;;;;;;5010976;28;20205;-77
2021/10/17 07:03:04;;;;;;;16.63;15.33;;;6.80;99.90;;;;;;5011625;28;20225;-77
2021/10/17 07:05:35;;;;;;;17.57;16.17;;;6.90;99.90;;;;;;5009092;28;20570;-77
2021/10/17 07:08:04;;;;;;;18.00;16.47;;;7.10;99.90;;;;;;5016971;28;20624;-77
2021/10/17 07:10:32;;;;;;;18.37;16.97;;;7.20;99.90;;;;;;5010069;28;20206;-77
2021/10/17 07:13:18;;;;;;;17.13;15.87;;;7.30;99.90;;;;;;5006710;28;20256;-76
2021/10/17 07:15:57;;;;;;;17.13;15.80;;;7.40;99.90;;;;;;5003344;28;20275;-77
2021/10/17 07:18:26;;;;;;;16.20;14.80;;;7.40;99.90;;;;;;5019516;28;20252;-77
2021/10/17 07:20:54;;;;;;;19.43;17.97;;;7.30;99.90;;;;;;5008791;28;20195;-77
2021/10/17 07:23:21;;;;;;;16.80;15.60;;;7.40;99.90;;;;;;5007686;28;20628;-77
2021/10/17 07:25:48;;;;;;;17.00;15.80;;;7.40;99.90;;;;;;5009814;28;20195;-77
2021/10/17 07:28:15;;;;;;;16.97;15.67;;;7.60;99.90;;;;;;5025198;28;20309;-76
2021/10/17 07:31:01;;;;;;;17.33;16.03;;;8.00;99.90;;;;;;5002454;28;20211;-77
2021/10/17 07:33:39;;;;;;;9.07;8.17;;;8.30;99.90;;;;;;5018127;28;20694;-77
2021/10/17 07:36:09;;;;;;;16.53;15.33;;;8.50;99.90;;;;;;5021071;28;20255;-76
2021/10/17 07:38:36;;;;;;;15.93;14.73;;;8.80;99.90;;;;;;5021159;28;20583;-77
2021/10/17 07:41:03;;;;;;;8.80;7.97;;;8.90;99.90;;;;;;5008663;28;20209;-76
2021/10/17 07:43:31;;;;;;;9.70;7.13;;;9.30;99.90;;;;;;5004417;28;20196;-77
2021/10/17 07:46:01;;;;;;;8.43;7.50;;;9.60;99.90;;;;;;5003968;28;20205;-77
2021/10/17 07:48:30;;;;;;;13.30;12.30;;;9.80;99.90;;;;;;5007343;28;20594;-77
2021/10/17 07:50:59;;;;;;;16.47;15.17;;;9.90;99.90;;;;;;5009407;28;20565;-77
2021/10/17 07:53:30;;;;;;;13.13;12.13;;;9.80;99.90;;;;;;5012851;28;20202;-76
2021/10/17 07:55:57;;;;;;;17.50;16.10;;;9.50;99.90;;;;;;5011182;28;20223;-77
2021/10/17 07:58:36;;;;;;;16.97;15.73;;;9.30;99.90;;;;;;5024653;28;20215;-79
2021/10/17 08:01:03;;;;;;;16.43;15.13;;;9.20;99.90;;;;;;5011478;28;20578;-77
2021/10/17 08:03:43;;;;;;;14.70;13.40;;;9.10;99.90;;;;;;5013355;28;20192;-77
2021/10/17 08:06:41;;;;;;;12.27;11.10;;;9.00;99.90;;;;;;4992942;28;20228;-77
2021/10/17 08:09:08;;;;;;;13.07;11.87;;;9.00;99.90;;;;;;5006676;28;20213;-77
2021/10/17 08:11:35;;;;;;;13.10;11.90;;;9.00;99.90;;;;;;5007836;28;20681;-77
2021/10/17 08:14:05;;;;;;;17.53;16.03;;;9.00;99.90;;;;;;5009447;28;20562;-76
2021/10/17 08:16:44;;;;;;;15.50;14.00;;;9.20;99.90;;;;;;5010904;28;20245;-77
2021/10/17 08:19:12;;;;;;;14.33;12.87;;;9.20;99.90;;;;;;5012958;28;20233;-77
2021/10/17 08:21:41;;;;;;;18.37;16.80;;;9.20;99.90;;;;;;5013073;28;20200;-77
2021/10/17 08:24:22;;;;;;;18.40;16.90;;;9.30;99.90;;;;;;5016467;28;20204;-77
2021/10/17 08:26:52;;;;;;;18.73;16.93;;;9.30;99.90;;;;;;5029783;28;20224;-77
2021/10/17 08:29:31;;;;;;;14.53;13.13;;;9.30;99.90;;;;;;5011620;28;20282;-76
2021/10/17 08:32:04;;;;;;;21.50;19.63;;;9.30;99.90;;;;;;5010777;28;20329;-77
2021/10/17 08:34:37;;;;;;;19.97;18.27;;;9.20;99.90;;;;;;5013204;28;20571;-77
2021/10/17 08:37:11;;;;;;;20.23;18.43;;;9.30;99.90;;;;;;5011409;28;20232;-77
2021/10/17 08:40:07;;;;;;;20.83;18.93;;;9.40;99.90;;;;;;5000188;28;20739;-77
2021/10/17 08:43:01;;;;;;;14.80;13.40;;;9.50;99.90;;;;;;5011536;28;20262;-77
2021/10/17 08:45:36;;;;;;;17.73;16.03;;;9.70;99.90;;;;;;5010536;28;20203;-77
2021/10/17 08:48:11;;;;;;;19.10;17.30;;;9.90;99.90;;;;;;5014082;28;20223;-78
2021/10/17 08:50:52;;;;;;;20.70;19.00;;;10.10;99.90;;;;;;5012643;28;20577;-80
2021/10/17 08:53:26;;;;;;;21.93;19.93;;;10.30;99.90;;;;;;5009893;28;20268;-78
2021/10/17 08:56:07;;;;;;;20.80;18.90;;;10.30;99.90;;;;;;5005030;28;20212;-77
2021/10/17 08:58:51;;;;;;;20.63;18.83;;;10.60;99.90;;;;;;5009807;28;20917;-77
2021/10/17 09:01:31;;;;;;;14.93;13.43;;;10.80;99.90;;;;;;5008553;28;20204;-77
2021/10/17 09:04:02;;;;;;;16.80;15.07;;;10.90;99.90;;;;;;5027587;28;20211;-77
2021/10/17 09:06:55;;;;;;;16.10;12.77;;;11.20;99.90;;;;;;4987850;28;20273;-77
2021/10/17 09:09:24;;;;;;;20.00;17.97;;;11.70;99.90;;;;;;5001724;28;20199;-77
2021/10/17 09:11:59;;;;;;;18.07;16.57;;;11.90;99.90;;;;;;5013706;28;20602;-78
2021/10/17 09:14:44;;;;;;;;;;;;;;;;;;;;;
2021/10/17 09:17:21;;;;;;;15.77;14.20;;;12.00;99.90;;;;;;5011703;28;20584;-78
2021/10/17 09:19:52;;;;;;;19.00;17.30;;;12.10;99.90;;;;;;5010618;28;20214;-78
2021/10/17 09:22:30;;;;;;;19.27;17.57;;;12.10;99.90;;;;;;5007308;28;20671;-78
2021/10/17 09:24:58;;;;;;;19.37;17.47;;;12.30;99.90;;;;;;5005539;28;20196;-78
2021/10/17 09:27:25;;;;;;;20.33;18.43;;;12.40;99.90;;;;;;5005278;28;20275;-78
2021/10/17 09:29:54;;;;;;;15.43;12.70;;;12.60;99.90;;;;;;5011022;28;20254;-78
2021/10/17 09:32:23;;;;;;;17.57;14.07;;;12.90;99.90;;;;;;5024755;28;20200;-78
2021/10/17 09:34:54;;;;;;;20.90;19.00;;;13.00;99.90;;;;;;5004923;28;20196;-79
2021/10/17 09:37:29;;;;;;;18.47;16.87;;;13.00;99.90;;;;;;5008917;28;20754;-77
2021/10/17 09:40:21;;;;;;;17.20;15.70;;;12.80;99.90;;;;;;5014164;28;20199;-78
2021/10/17 09:43:11;;;;;;;15.13;13.63;;;12.80;99.90;;;;;;5019748;28;20231;-78
2021/10/17 09:46:48;;;;;;;13.77;12.37;;;12.80;99.90;;;;;;5001607;28;20201;-79
2021/10/17 09:49:20;;;;;;;13.60;12.27;;;12.90;99.90;;;;;;5002740;28;20698;-78
2021/10/17 09:52:16;;;;;;;13.87;12.57;;;12.90;99.90;;;;;;5009634;28;20303;-79
2021/10/17 10:01:31;;;;;;;13.63;12.33;;;12.80;99.90;;;;;;4990482;28;20219;-78
2021/10/17 10:04:12;;;;;;;14.13;12.73;;;12.70;99.90;;;;;;4994351;28;20550;-77
2021/10/17 10:06:40;;;;;;;13.20;11.83;;;12.70;99.90;;;;;;4990836;28;20209;-77
2021/10/17 10:09:08;;;;;;;13.90;12.60;;;12.70;99.90;;;;;;4974594;28;20278;-77
2021/10/17 10:11:39;;;;;;;17.50;16.00;;;12.80;99.90;;;;;;4974045;28;20199;-78
2021/10/17 10:14:11;;;;;;;18.07;16.57;;;12.60;99.90;;;;;;4984309;28;20219;-78
2021/10/17 10:16:41;;;;;;;18.50;16.97;;;12.60;99.90;;;;;;4975119;28;20239;-77
2021/10/17 10:19:12;;;;;;;18.00;16.50;;;12.60;99.90;;;;;;4976563;28;20338;-77
2021/10/17 10:21:39;;;;;;;16.10;14.77;;;12.60;99.90;;;;;;4992408;28;20251;-77
2021/10/17 10:24:09;;;;;;;11.97;10.63;;;12.60;99.90;;;;;;4974574;28;20496;-77
2021/10/17 10:26:38;;;;;;;12.10;10.93;;;12.70;99.90;;;;;;4974435;28;20673;-77
2021/10/17 10:29:05;;;;;;;11.50;10.40;;;12.80;99.90;;;;;;4974207;28;20737;-76
2021/10/17 10:31:47;;;;;;;11.07;10.07;;;12.90;99.90;;;;;;4991744;28;20625;-77
2021/10/17 10:35:06;;;;;;;11.63;10.53;;;12.80;99.90;;;;;;4979703;28;20291;-77
2021/10/17 10:37:48;;;;;;;10.90;9.90;;;12.80;99.90;;;;;;4972607;28;20312;-76
2021/10/17 10:40:17;;;;;;;13.57;12.17;;;12.90;99.90;;;;;;4990758;28;20204;-76
2021/10/17 10:42:46;;;;;;;15.23;13.87;;;12.80;99.90;;;;;;4988734;28;20679;-77
2021/10/17 10:45:26;;;;;;;15.47;13.97;;;12.90;99.90;;;;;;4979597;28;20678;-78
2021/10/17 10:48:22;;;;;;;12.33;11.23;;;12.90;99.90;;;;;;4995191;28;20277;-79
2021/10/17 10:50:51;;;;;;;12.73;11.50;;;13.00;99.90;;;;;;4992710;28;20196;-79
2021/10/17 10:53:51;;;;;;;13.83;12.23;;;12.90;99.90;;;;;;4989214;28;20276;-78
2021/10/17 10:56:48;;;;;;;12.60;11.40;;;13.00;99.90;;;;;;4999424;28;20232;-79
2021/10/17 10:59:17;;;;;;;14.60;13.10;;;13.10;99.90;;;;;;4989210;28;20228;-78
2021/10/17 11:01:58;;;;;;;12.63;11.43;;;13.10;99.90;;;;;;5000064;28;20240;-78
2021/10/17 11:05:07;;;;;;;13.03;11.87;;;12.90;99.90;;;;;;4974516;28;20584;-78
2021/10/17 11:07:37;;;;;;;18.17;16.77;;;13.00;99.90;;;;;;4989696;28;20227;-80
2021/10/17 11:10:47;;;;;;;17.73;16.23;;;13.00;99.90;;;;;;4980381;28;20592;-79
2021/10/17 11:13:33;;;;;;;14.07;12.87;;;13.10;99.90;;;;;;4973585;28;20602;-78
2021/10/17 11:16:00;;;;;;;16.73;15.23;;;13.20;99.90;;;;;;4971157;28;20634;-79
2021/10/17 11:18:36;;;;;;;16.87;15.37;;;13.10;99.90;;;;;;4991310;28;20236;-79
2021/10/17 11:21:06;;;;;;;14.23;12.83;;;13.00;99.90;;;;;;4991674;28;20206;-78
2021/10/17 11:23:35;;;;;;;15.00;13.50;;;13.10;99.90;;;;;;4985873;28;20209;-78
2021/10/17 11:26:05;;;;;;;18.93;17.33;;;13.10;99.90;;;;;;4985470;28;20201;-78
2021/10/17 11:28:37;;;;;;;16.80;15.40;;;13.20;99.90;;;;;;4988854;28;20298;-79
2021/10/17 11:31:10;;;;;;;17.23;15.83;;;13.20;99.90;;;;;;4974636;28;20216;-79
2021/10/17 11:33:38;;;;;;;19.00;17.30;;;13.20;99.90;;;;;;4988889;28;20185;-80
2021/10/17 11:36:07;;;;;;;17.23;15.73;;;13.30;99.90;;;;;;4963042;28;20208;-80
2021/10/17 11:38:35;;;;;;;17.20;15.80;;;13.30;99.90;;;;;;4972898;28;20219;-79
2021/10/17 11:41:04;;;;;;;17.43;16.00;;;13.30;99.90;;;;;;4989760;28;20272;-79
2021/10/17 11:43:36;;;;;;;20.00;18.20;;;13.30;99.90;;;;;;4971126;28;20670;-79
2021/10/17 11:46:08;;;;;;;17.23;15.83;;;13.30;99.90;;;;;;4987725;28;20676;-79
2021/10/17 11:48:38;;;;;;;18.83;17.13;;;13.20;99.90;;;;;;4990369;28;20218;-82
2021/10/17 11:51:07;;;;;;;16.87;15.43;;;13.30;99.90;;;;;;4975415;28;20227;-79
2021/10/17 11:53:36;;;;;;;17.23;15.77;;;13.30;99.90;;;;;;4987388;28;20865;-78
2021/10/17 11:56:05;;;;;;;15.63;14.43;;;13.30;99.90;;;;;;4988248;28;20209;-79
2021/10/17 11:58:32;;;;;;;16.43;15.13;;;13.40;99.90;;;;;;4970628;28;20729;-81
2021/10/17 12:01:08;;;;;;;17.70;16.20;;;13.40;99.90;;;;;;4970674;28;20201;-80
2021/10/17 12:03:35;;;;;;;16.27;14.97;;;13.30;99.90;;;;;;4991142;28;20200;-80
2021/10/17 12:06:02;;;;;;;15.53;14.30;;;13.30;99.90;;;;;;4990124;28;20205;-81
2021/10/17 12:08:31;;;;;;;16.33;15.03;;;13.40;99.90;;;;;;4974600;28;20326;-80
2021/10/17 12:11:02;;;;;;;16.40;15.10;;;13.40;99.90;;;;;;4974111;28;20236;-80
2021/10/17 12:13:41;;;;;;;16.83;15.50;;;13.30;99.90;;;;;;4971909;28;20212;-81
2021/10/17 12:16:09;;;;;;;16.33;15.00;;;13.20;99.90;;;;;;4995670;28;20251;-81
2021/10/17 12:18:42;;;;;;;17.53;16.07;;;13.30;99.90;;;;;;4976217;28;20718;-81
2021/10/17 12:21:10;;;;;;;17.97;16.40;;;13.30;99.90;;;;;;4980931;28;20645;-81
2021/10/17 12:23:39;;;;;;;17.30;15.70;;;13.30;99.90;;;;;;4979461;28;20301;-80
2021/10/17 12:26:19;;;;;;;16.17;14.87;;;13.30;99.90;;;;;;4994011;28;20737;-80
2021/10/17 12:29:32;;;;;;;17.33;15.93;;;13.40;99.90;;;;;;4995582;28;20212;-79
2021/10/17 12:35:48;;;;;;;17.93;16.43;;;13.40;99.90;;;;;;4951492;29;20794;-81
2021/10/17 12:38:17;;;;;;;17.60;16.20;;;13.40;99.90;;;;;;4946105;28;20718;-80
2021/10/17 12:40:51;;;;;;;15.40;14.20;;;13.50;99.90;;;;;;4964581;28;20227;-80
2021/10/17 12:43:25;;;;;;;17.17;15.83;;;13.60;99.90;;;;;;4971017;28;20578;-81
2021/10/17 12:45:52;;;;;;;16.20;14.97;;;13.70;99.90;;;;;;4999120;28;20266;-80
2021/10/17 12:48:34;;;;;;;17.70;16.40;;;13.70;99.90;;;;;;4990833;28;20717;-80
2021/10/17 12:51:01;;;;;;;17.53;16.23;;;13.70;99.90;;;;;;4996245;28;20204;-80
2021/10/17 12:53:28;;;;;;;17.60;16.20;;;13.70;99.90;;;;;;4996091;28;20219;-81
2021/10/17 12:55:57;;;;;;;16.47;15.17;;;13.70;99.90;;;;;;4994100;28;20201;-79
2021/10/17 12:58:29;;;;;;;16.77;15.47;;;13.80;99.90;;;;;;4993565;28;20339;-80
2021/10/17 13:01:04;;;;;;;16.10;14.90;;;13.80;99.90;;;;;;4993464;28;20197;-79
2021/10/17 13:03:32;;;;;;;17.17;15.77;;;13.70;99.90;;;;;;4976460;28;20251;-78
2021/10/17 13:06:04;;;;;;;15.90;14.70;;;13.80;99.90;;;;;;4992019;28;20206;-80